Time;durP1;ratioP1;P1;durP2;ratioP2;P2;SDS_P1;SDS_P2;PMS_P1;PMS_P2;Temp;Humidity;BMP_temperature;BMP_pressure;BME280_temperature;BME280_humidity;BME280_pressure;Samples;Min_cycle;Max_cycle;Signal;HPM_P1;HPM_P2
2022/07/11 00:00:55;;;;;;;10.40;7.57;;;;;;;15.02;53.18;101039.06;5020924;28;20048;-73
2022/07/11 00:03:20;;;;;;;8.73;7.50;;;;;;;14.97;53.14;101035.59;5024019;28;20030;-73
2022/07/11 00:05:46;;;;;;;8.40;7.60;;;;;;;14.89;53.36;101041.91;5005896;28;20034;-73
2022/07/11 00:08:11;;;;;;;9.70;8.93;;;;;;;14.81;54.24;101030.53;5020322;28;20417;-73
2022/07/11 00:10:37;;;;;;;12.05;9.43;;;;;;;14.77;53.92;101034.13;5025552;28;20037;-73
2022/07/11 00:13:02;;;;;;;11.52;8.73;;;;;;;14.72;53.78;101041.28;5021903;28;20040;-72
2022/07/11 00:15:28;;;;;;;8.20;7.05;;;;;;;14.64;54.05;101038.72;5024192;28;20116;-73
2022/07/11 00:17:53;;;;;;;9.98;9.07;;;;;;;14.57;54.59;101031.78;5023371;28;20477;-73
2022/07/11 00:20:18;;;;;;;9.82;9.02;;;;;;;14.52;54.55;101032.72;5023420;28;20041;-73
2022/07/11 00:22:44;;;;;;;12.90;11.90;;;;;;;14.48;54.95;101034.53;5023994;28;20116;-73
2022/07/11 00:25:09;;;;;;;10.30;8.77;;;;;;;14.40;55.79;101039.94;5022241;28;20456;-73
2022/07/11 00:27:34;;;;;;;10.25;8.70;;;;;;;14.34;55.40;101042.69;5024968;28;20547;-73
2022/07/11 00:30:00;;;;;;;11.13;10.07;;;;;;;14.28;56.20;101036.56;5015091;28;20135;-73
2022/07/11 00:32:25;;;;;;;10.68;9.63;;;;;;;14.22;55.64;101029.56;5004596;28;20052;-73
2022/07/11 00:34:51;;;;;;;9.57;8.70;;;;;;;14.15;55.97;101033.22;5023625;28;20029;-73
2022/07/11 00:37:16;;;;;;;8.93;8.02;;;;;;;14.06;56.38;101028.88;5029758;28;20045;-72
2022/07/11 00:39:42;;;;;;;8.75;7.82;;;;;;;13.98;56.99;101026.31;5028256;28;20021;-73
2022/07/11 00:42:07;;;;;;;10.30;8.07;;;;;;;13.95;57.37;101031.66;5027653;28;20163;-72
2022/07/11 00:44:32;;;;;;;13.82;8.07;;;;;;;13.91;57.49;101029.97;5024839;28;20112;-72
2022/07/11 00:46:58;;;;;;;9.00;7.88;;;;;;;13.94;57.35;101024.63;5030638;28;20469;-73
2022/07/11 00:49:23;;;;;;;9.32;8.02;;;;;;;13.99;57.43;101021.88;5022262;28;20483;-73
2022/07/11 00:51:49;;;;;;;11.32;8.68;;;;;;;13.98;57.20;101020.16;5024088;28;20120;-73
2022/07/11 00:54:16;;;;;;;11.45;10.05;;;;;;;13.92;57.73;101018.44;5029964;28;20079;-73
2022/07/11 00:56:42;;;;;;;10.20;9.30;;;;;;;13.90;57.61;101019.38;5027830;28;20411;-73
2022/07/11 00:59:08;;;;;;;11.07;10.07;;;;;;;13.88;58.01;101018.50;5025430;28;20124;-73
2022/07/11 01:01:37;;;;;;;10.82;9.95;;;;;;;13.87;58.13;101022.94;5023992;28;20045;-73
2022/07/11 01:04:03;;;;;;;9.65;8.75;;;;;;;13.85;58.51;101015.88;5027773;28;20120;-72
2022/07/11 01:06:28;;;;;;;10.60;9.50;;;;;;;13.86;58.01;101015.88;5025841;28;20068;-73
2022/07/11 01:08:53;;;;;;;10.32;9.40;;;;;;;13.79;58.67;101024.81;5024229;28;20400;-73
2022/07/11 01:11:19;;;;;;;9.82;9.05;;;;;;;13.71;58.21;101021.34;5020484;28;20045;-72
2022/07/11 01:13:45;;;;;;;9.65;8.32;;;;;;;13.62;58.79;101027.63;5023987;28;20041;-73
2022/07/11 01:16:15;;;;;;;10.43;9.40;;;;;;;13.49;59.28;101026.00;5022244;28;20068;-73
2022/07/11 01:18:42;;;;;;;17.17;11.00;;;;;;;13.40;59.92;101020.81;5023608;28;20029;-73
2022/07/11 01:21:30;;;;;;;12.07;10.98;;;;;;;13.37;59.89;101021.72;5026013;28;20033;-73
2022/07/11 01:24:00;;;;;;;11.07;10.23;;;;;;;13.31;60.47;101022.66;5023851;28;20049;-73
2022/07/11 01:26:26;;;;;;;11.48;10.48;;;;;;;13.27;60.16;101026.22;5021391;28;20678;-73
2022/07/11 01:28:53;;;;;;;12.13;10.98;;;;;;;13.25;60.44;101032.38;5022855;28;20057;-73
2022/07/11 01:31:19;;;;;;;11.13;10.20;;;;;;;13.22;60.82;101027.13;5021915;28;20092;-73
2022/07/11 01:33:44;;;;;;;12.45;11.43;;;;;;;13.19;60.49;101032.44;5021438;28;20040;-73
2022/07/11 01:36:10;;;;;;;11.93;10.93;;;;;;;13.13;60.90;101031.63;5023582;28;20049;-73
2022/07/11 01:38:36;;;;;;;11.48;10.48;;;;;;;13.15;60.20;101021.88;5020521;28;20092;-73
2022/07/11 01:41:01;;;;;;;11.63;10.35;;;;;;;13.09;60.82;101027.22;5022499;28;20486;-73
2022/07/11 01:43:27;;;;;;;11.15;10.23;;;;;;;13.02;60.91;101028.19;5021655;28;20087;-73
2022/07/11 01:45:53;;;;;;;11.15;10.23;;;;;;;12.98;61.16;101023.78;5022354;28;20063;-73
2022/07/11 01:48:19;;;;;;;14.10;10.57;;;;;;;12.90;60.91;101025.63;5022614;28;20040;-73
2022/07/11 01:50:45;;;;;;;14.02;10.05;;;;;;;12.86;61.78;101029.19;5020078;28;20038;-73
2022/07/11 01:53:11;;;;;;;11.13;10.25;;;;;;;12.77;62.12;101027.47;5019782;28;20045;-73
2022/07/11 01:55:36;;;;;;;13.27;12.48;;;;;;;12.69;62.26;101032.84;5023270;28;20037;-73
2022/07/11 01:58:01;;;;;;;13.25;12.15;;;;;;;12.67;62.47;101034.59;5021005;28;20132;-72
2022/07/11 02:00:27;;;;;;;13.65;12.75;;;;;;;12.60;62.61;101021.41;5022166;28;20125;-73
2022/07/11 02:02:52;;;;;;;12.77;11.85;;;;;;;12.56;63.31;101025.00;5021998;28;20045;-72
2022/07/11 02:05:17;;;;;;;12.38;11.57;;;;;;;12.51;63.46;101022.34;5020471;28;20040;-73
2022/07/11 02:10:29;;;;;;;11.38;10.23;;;;;;;12.46;63.81;101032.09;5021445;28;20064;-75
2022/07/11 02:12:56;;;;;;;15.15;10.85;;;;;;;12.44;63.50;101031.22;5019382;28;20106;-73
2022/07/11 02:15:21;;;;;;;11.60;10.60;;;;;;;12.38;64.29;101025.97;5022991;28;20044;-73
2022/07/11 02:17:46;;;;;;;14.38;13.38;;;;;;;12.36;64.04;101033.03;5021101;28;20029;-73
2022/07/11 02:20:12;;;;;;;15.43;14.13;;;;;;;12.30;64.83;101036.59;5019806;28;20048;-73
2022/07/11 02:22:37;;;;;;;13.68;12.68;;;;;;;12.22;65.51;101041.94;5021519;28;20427;-72
2022/07/11 02:25:03;;;;;;;18.33;16.98;;;;;;;12.12;66.22;101040.22;5020532;28;20420;-72
2022/07/11 02:27:28;;;;;;;17.02;15.75;;;;;;;12.09;65.87;101039.34;5023110;28;20473;-73
2022/07/11 02:29:53;;;;;;;20.23;18.55;;;;;;;12.05;65.86;101038.47;5019889;28;20033;-73
2022/07/11 02:32:18;;;;;;;17.63;16.33;;;;;;;12.03;67.60;101040.25;5020657;28;20040;-73
2022/07/11 02:34:44;;;;;;;21.80;20.55;;;;;;;11.98;66.72;101034.97;5020602;28;20037;-72
2022/07/11 02:37:09;;;;;;;21.83;20.27;;;;;;;11.93;67.07;101034.13;5021187;28;20376;-73
2022/07/11 02:39:34;;;;;;;23.30;21.80;;;;;;;11.87;66.63;101033.25;5022215;28;20635;-73
2022/07/11 02:42:00;;;;;;;27.90;25.58;;;;;;;11.82;67.81;101036.78;5019830;28;20413;-73
2022/07/11 02:44:25;;;;;;;25.40;23.70;;;;;;;11.80;68.29;101038.53;5022445;28;20526;-73
2022/07/11 02:46:50;;;;;;;18.92;17.20;;;;;;;11.79;68.25;101039.44;5027510;28;20057;-73
2022/07/11 02:49:16;;;;;;;18.60;17.25;;;;;;;11.78;67.77;101042.94;5022208;28;20489;-72
2022/07/11 02:51:41;;;;;;;19.02;17.77;;;;;;;11.69;68.20;101045.63;5019589;28;20053;-72
2022/07/11 02:54:06;;;;;;;16.70;15.55;;;;;;;11.61;68.03;101042.13;5030983;28;20053;-73
2022/07/11 02:56:32;;;;;;;19.25;17.80;;;;;;;11.54;70.00;101058.88;5029615;28;20053;-74
2022/07/11 02:58:58;;;;;;;20.17;18.88;;;;;;;11.50;69.02;101054.47;5026487;28;20041;-75
2022/07/11 03:01:23;;;;;;;15.68;14.75;;;;;;;11.46;69.68;101055.38;5022962;28;20559;-75
2022/07/11 03:03:48;;;;;;;21.52;20.27;;;;;;;11.44;69.50;101059.75;5025925;28;20140;-75
2022/07/11 03:06:14;;;;;;;23.02;21.60;;;;;;;11.44;69.66;101055.34;5024628;28;20041;-76
2022/07/11 03:08:39;;;;;;;32.22;30.55;;;;;;;11.43;70.20;101058.00;5024926;28;20045;-75
2022/07/11 03:11:05;;;;;;;40.45;38.50;;;;;;;11.40;70.78;101065.06;5020462;28;20041;-76
2022/07/11 03:13:31;;;;;;;33.35;31.67;;;;;;;11.36;71.32;101062.41;5026964;28;20049;-76
2022/07/11 03:15:56;;;;;;;21.48;19.95;;;;;;;11.32;71.59;101063.31;5026446;28;20760;-76
2022/07/11 03:18:21;;;;;;;17.08;15.77;;;;;;;11.30;71.51;101073.88;5022453;28;20041;-75
2022/07/11 03:20:47;;;;;;;14.23;13.07;;;;;;;11.31;71.78;101074.75;5022281;28;20068;-75
2022/07/11 03:23:12;;;;;;;14.27;13.27;;;;;;;11.29;72.06;101066.84;5023754;28;20034;-75
2022/07/11 03:25:37;;;;;;;13.30;12.25;;;;;;;11.30;72.01;101075.63;5020262;28;20095;-76
2022/07/11 03:28:03;;;;;;;12.88;11.88;;;;;;;11.32;71.65;101079.16;5025023;28;20037;-75
2022/07/11 03:30:29;;;;;;;11.27;10.60;;;;;;;11.30;73.31;101079.16;5026654;28;20496;-76
2022/07/11 03:32:54;;;;;;;14.32;13.48;;;;;;;11.28;73.12;101080.91;5025866;28;20080;-75
2022/07/11 03:38:03;;;;;;;16.52;14.90;;;;;;;11.32;73.30;101082.69;5022301;28;20038;-76
2022/07/11 03:40:28;;;;;;;25.95;24.45;;;;;;;11.34;72.96;101070.34;5023057;28;20131;-75
2022/07/11 03:42:54;;;;;;;98.13;93.30;;;;;;;11.39;73.02;101073.84;5006946;28;20037;-76
2022/07/11 03:45:19;;;;;;;66.72;62.25;;;;;;;11.41;72.91;101076.50;5026667;28;20033;-75
2022/07/11 03:47:47;;;;;;;31.52;29.88;;;;;;;11.45;72.93;101078.28;5020347;28;20026;-75
2022/07/11 03:50:12;;;;;;;30.30;28.75;;;;;;;11.50;72.69;101075.59;5030599;28;20048;-75
2022/07/11 03:52:37;;;;;;;20.38;19.27;;;;;;;11.53;72.53;101076.50;5021827;28;20041;-75
2022/07/11 03:55:03;;;;;;;21.17;20.08;;;;;;;11.53;73.14;101072.97;5024274;28;20048;-75
2022/07/11 03:57:28;;;;;;;23.25;21.95;;;;;;;11.54;73.43;101074.72;5030776;28;20516;-75
2022/07/11 03:59:54;;;;;;;90.55;86.40;;;;;;;11.52;73.84;101073.84;5025780;28;20042;-75
2022/07/11 04:02:19;;;;;;;148.45;141.40;;;;;;;11.57;73.28;101077.38;5022556;28;20088;-75
2022/07/11 04:04:44;;;;;;;120.70;114.63;;;;;;;11.61;74.13;101084.41;5024382;28;20049;-75
2022/07/11 04:07:10;;;;;;;122.88;117.10;;;;;;;11.69;73.15;101079.13;5026831;28;20072;-75
2022/07/11 04:09:35;;;;;;;123.45;117.85;;;;;;;11.73;73.44;101080.84;5026378;28;20045;-75
2022/07/11 04:12:00;;;;;;;155.88;148.50;;;;;;;11.76;73.10;101080.84;5024496;28;20053;-75
2022/07/11 04:14:26;;;;;;;165.82;158.00;;;;;;;11.79;72.84;101076.44;5023246;28;20041;-76
2022/07/11 04:16:51;;;;;;;212.60;202.77;;;;;;;11.87;72.67;101086.13;5023785;28;20046;-75
2022/07/11 04:19:17;;;;;;;255.15;242.65;;;;;;;11.90;73.27;101080.88;5022778;28;20030;-75
2022/07/11 04:21:42;;;;;;;44.72;42.65;;;;;;;12.00;72.84;101083.47;5011710;28;20033;-75
2022/07/11 04:24:07;;;;;;;128.90;122.85;;;;;;;12.06;72.25;101080.81;5025299;28;20466;-75
2022/07/11 04:26:33;;;;;;;240.40;229.20;;;;;;;12.12;71.82;101082.53;5020696;28;20385;-75
2022/07/11 04:28:58;;;;;;;268.08;255.10;;;;;;;12.20;71.89;101080.75;5024347;28;20407;-74
2022/07/11 04:31:23;;;;;;;282.75;268.35;;;;;;;12.31;71.49;101093.06;5022474;28;20046;-76
2022/07/11 04:33:48;;;;;;;279.88;266.42;;;;;;;12.36;71.89;101092.13;5023154;28;20042;-75
2022/07/11 04:36:14;;;;;;;278.40;264.90;;;;;;;12.45;71.10;101088.59;5023651;28;20042;-76
2022/07/11 04:38:43;;;;;;;283.83;270.40;;;;;;;12.53;70.72;101084.13;5021844;28;20044;-75
2022/07/11 04:41:09;;;;;;;276.50;263.40;;;;;;;12.55;71.64;101085.00;5020377;28;20408;-75
2022/07/11 04:43:36;;;;;;;270.10;257.10;;;;;;;12.61;70.92;101086.75;5025258;28;20034;-76
2022/07/11 04:46:02;;;;;;;276.05;262.77;;;;;;;12.70;71.10;101095.50;5023230;28;20041;-75
2022/07/11 04:48:27;;;;;;;272.08;259.17;;;;;;;12.78;70.75;101087.50;5026651;28;20029;-76
2022/07/11 04:50:53;;;;;;;272.02;259.25;;;;;;;12.83;71.09;101100.72;5024963;28;20069;-75
2022/07/11 04:53:19;;;;;;;281.65;267.85;;;;;;;12.84;71.81;101097.19;5024486;28;20064;-76
2022/07/11 04:55:44;;;;;;;278.85;265.45;;;;;;;12.91;71.28;101094.47;5027305;28;20080;-75
2022/07/11 04:58:09;;;;;;;273.50;260.52;;;;;;;12.99;71.70;101096.19;5028630;28;20034;-76
2022/07/11 05:00:35;;;;;;;263.92;251.50;;;;;;;13.04;71.45;101095.28;5028821;28;20060;-75
2022/07/11 05:03:01;;;;;;;255.50;243.57;;;;;;;13.13;71.05;101092.56;5027719;28;20480;-75
2022/07/11 05:05:27;;;;;;;269.88;257.13;;;;;;;13.22;70.81;101096.03;5028046;28;20041;-76
2022/07/11 05:07:52;;;;;;;272.67;259.55;;;;;;;13.33;70.75;101097.72;5021286;28;20036;-75
2022/07/11 05:10:18;;;;;;;275.17;262.25;;;;;;;13.37;70.88;101099.47;5028925;28;20107;-76
2022/07/11 05:12:44;;;;;;;269.13;256.08;;;;;;;13.49;70.12;101106.44;5025637;28;20116;-76
2022/07/11 05:15:10;;;;;;;254.25;241.85;;;;;;;13.56;69.81;101104.59;5028131;28;20116;-75
2022/07/11 05:17:35;;;;;;;245.32;233.85;;;;;;;13.62;69.25;101096.56;5030918;28;20113;-75
2022/07/11 05:20:00;;;;;;;249.32;237.60;;;;;;;13.72;68.76;101108.00;5029474;28;20112;-73
2022/07/11 05:22:26;;;;;;;277.77;264.17;;;;;;;13.84;68.81;101107.88;5027745;28;20416;-73
2022/07/11 05:24:52;;;;;;;251.40;239.63;;;;;;;13.93;67.92;101115.72;5028325;28;20099;-73
2022/07/11 05:27:17;;;;;;;249.65;237.88;;;;;;;13.98;67.58;101115.69;5029408;28;20025;-72
2022/07/11 05:29:42;;;;;;;250.50;238.73;;;;;;;14.09;67.27;101115.56;5024625;28;20045;-73
2022/07/11 05:32:08;;;;;;;252.70;240.85;;;;;;;14.16;67.27;101118.13;5021444;28;20083;-73
2022/07/11 05:34:34;;;;;;;245.07;233.40;;;;;;;14.22;66.49;101119.81;5021345;28;20037;-73
2022/07/11 05:36:59;;;;;;;236.25;225.20;;;;;;;14.39;66.63;101123.16;5024074;28;20037;-73
2022/07/11 05:39:24;;;;;;;223.02;212.77;;;;;;;14.52;66.09;101123.03;5016901;28;20514;-73
2022/07/11 05:41:51;;;;;;;220.18;209.85;;;;;;;14.47;65.23;101126.59;5026113;28;20080;-74
2022/07/11 05:44:20;;;;;;;224.27;213.93;;;;;;;14.56;65.46;101128.28;5022986;28;20049;-73
2022/07/11 05:46:45;;;;;;;203.85;194.05;;;;;;;14.57;64.84;101131.84;5023314;28;20037;-73
2022/07/11 05:49:12;;;;;;;215.55;205.73;;;;;;;14.58;64.16;101133.59;5029784;28;20106;-75
2022/07/11 05:51:38;;;;;;;55.58;52.67;;;;;;;14.72;64.49;101131.59;5024143;28;20052;-74
2022/07/11 05:54:04;;;;;;;61.47;58.28;;;;;;;14.78;63.94;101128.88;5022991;28;20399;-74
2022/07/11 05:56:29;;;;;;;81.28;77.32;;;;;;;14.87;64.09;101130.53;5028183;28;20037;-74
2022/07/11 05:58:55;;;;;;;88.07;84.03;;;;;;;14.98;63.49;101131.25;5007669;28;20185;-75
2022/07/11 06:01:22;;;;;;;84.90;80.78;;;;;;;15.08;63.08;101134.66;5022339;28;20041;-74
2022/07/11 06:03:47;;;;;;;91.38;86.85;;;;;;;15.08;62.61;101129.34;5005112;28;20034;-74
2022/07/11 06:06:13;;;;;;;130.98;124.45;;;;;;;15.11;62.78;101130.16;5019387;28;20029;-75
2022/07/11 06:08:41;;;;;;;143.00;136.43;;;;;;;15.22;62.69;101127.34;5023505;28;20433;-75
2022/07/11 06:11:07;;;;;;;124.03;116.95;;;;;;;15.21;62.06;101124.72;5026027;28;20060;-74
2022/07/11 06:13:33;;;;;;;146.48;139.73;;;;;;;15.23;62.32;101129.09;5023401;28;20038;-74
2022/07/11 06:15:58;;;;;;;207.63;197.80;;;;;;;15.24;62.68;101125.53;5024952;28;20084;-74
2022/07/11 06:18:24;;;;;;;188.90;180.13;;;;;;;15.34;62.00;101124.47;5018727;28;20030;-74
2022/07/11 06:20:50;;;;;;;177.45;169.15;;;;;;;15.49;61.53;101133.13;5024463;28;20633;-73
2022/07/11 06:23:15;;;;;;;190.43;181.35;;;;;;;15.54;61.64;101128.59;5026644;28;20480;-74
2022/07/11 06:25:40;;;;;;;198.30;189.13;;;;;;;15.60;61.32;101139.13;5015975;28;20073;-74
2022/07/11 06:28:06;;;;;;;186.90;178.02;;;;;;;15.59;60.81;101141.81;5020214;28;20038;-74
2022/07/11 06:30:32;;;;;;;45.42;43.17;;;;;;;15.64;60.27;101140.84;5019438;28;20034;-75
2022/07/11 06:32:58;;;;;;;53.03;50.55;;;;;;;15.73;59.81;101134.50;5021881;28;20120;-75
2022/07/11 06:35:23;;;;;;;28.00;26.25;;;;;;;15.81;59.93;101137.03;5017916;28;20034;-74
2022/07/11 06:37:49;;;;;;;25.00;23.58;;;;;;;15.97;59.80;101134.03;5025488;28;20075;-74
2022/07/11 06:40:17;;;;;;;25.27;24.00;;;;;;;16.10;60.03;101132.03;5023026;28;20045;-74
2022/07/11 06:42:43;;;;;;;36.05;34.03;;;;;;;16.27;58.17;101146.78;5020647;28;20025;-75
2022/07/11 06:45:09;;;;;;;19.95;18.80;;;;;;;16.11;58.14;101136.47;5005576;28;20112;-75
2022/07/11 06:47:34;;;;;;;25.15;23.52;;;;;;;16.19;58.57;101138.94;5022376;28;20496;-75
2022/07/11 06:50:00;;;;;;;24.67;23.25;;;;;;;16.26;57.85;101145.91;5018430;28;20074;-75
2022/07/11 06:52:25;;;;;;;43.47;41.28;;;;;;;16.33;57.63;101141.38;5019131;28;20150;-75
2022/07/11 06:54:50;;;;;;;51.25;48.55;;;;;;;16.43;58.49;101133.16;5021181;28;20041;-75
2022/07/11 06:57:16;;;;;;;53.40;50.55;;;;;;;16.57;57.78;101135.50;5020923;28;20053;-75
2022/07/11 06:59:41;;;;;;;46.60;44.38;;;;;;;16.71;56.76;101142.34;5019934;28;20042;-75
2022/07/11 07:02:06;;;;;;;57.75;54.78;;;;;;;16.80;56.42;101144.84;5021154;28;20045;-75
2022/07/11 07:04:32;;;;;;;63.22;60.22;;;;;;;16.85;56.16;101134.97;5019368;28;20034;-74
2022/07/11 07:06:59;;;;;;;59.72;56.92;;;;;;;16.89;55.47;101144.63;5021731;28;20444;-74
2022/07/11 07:09:26;;;;;;;36.10;34.28;;;;;;;16.84;54.90;101151.84;5021217;28;20033;-75
2022/07/11 07:11:51;;;;;;;51.13;48.72;;;;;;;16.75;55.28;101144.91;5019994;28;20489;-74
2022/07/11 07:14:16;;;;;;;42.42;40.47;;;;;;;17.00;54.83;101144.38;5004597;28;20124;-75
2022/07/11 07:16:42;;;;;;;46.38;43.97;;;;;;;16.99;54.68;101139.97;5027289;28;20049;-75
2022/07/11 07:19:07;;;;;;;56.95;54.15;;;;;;;16.92;55.62;101146.34;5025368;28;20137;-74
2022/07/11 07:21:32;;;;;;;58.22;55.45;;;;;;;16.94;55.46;101150.72;5021019;28;20065;-75
2022/07/11 07:23:58;;;;;;;58.95;55.67;;;;;;;16.97;55.13;101145.31;5019744;28;20038;-75
2022/07/11 07:26:23;;;;;;;57.75;54.97;;;;;;;17.27;54.63;101148.22;5020829;28;20065;-75
2022/07/11 07:28:49;;;;;;;55.30;52.58;;;;;;;17.36;53.84;101147.09;5020675;28;20034;-75
2022/07/11 07:31:15;;;;;;;58.05;55.25;;;;;;;17.17;54.81;101147.53;5020666;28;20508;-75
2022/07/11 07:33:41;;;;;;;57.85;55.17;;;;;;;17.36;54.68;101147.09;5017485;28;20038;-75
2022/07/11 07:36:06;;;;;;;63.78;60.60;;;;;;;17.75;53.11;101138.06;5008270;28;20025;-75
2022/07/11 07:38:32;;;;;;;60.38;57.47;;;;;;;18.12;52.41;101139.78;5020971;28;20397;-74
2022/07/11 07:40:57;;;;;;;57.80;55.00;;;;;;;18.27;51.97;101148.31;5024124;28;20120;-75
2022/07/11 07:43:23;;;;;;;53.10;50.35;;;;;;;18.26;51.12;101143.88;5024388;28;20045;-76
2022/07/11 07:45:48;;;;;;;36.72;34.80;;;;;;;17.78;51.30;101139.78;5022223;28;20100;-75
2022/07/11 07:48:14;;;;;;;60.75;57.67;;;;;;;17.49;52.67;101141.41;5025513;28;20033;-75
2022/07/11 07:50:39;;;;;;;71.03;67.32;;;;;;;17.60;52.74;101150.94;5020013;28;20029;-75
2022/07/11 07:53:04;;;;;;;76.03;72.00;;;;;;;18.01;52.46;101143.69;5022020;28;20087;-75
2022/07/11 07:55:30;;;;;;;74.32;70.88;;;;;;;18.33;51.66;101138.31;5015441;28;20037;-75
2022/07/11 07:57:55;;;;;;;68.00;64.88;;;;;;;18.40;50.59;101142.56;5030104;28;20044;-76
2022/07/11 08:03:06;;;;;;;72.68;69.40;;;;;;;17.83;51.80;101140.56;5023260;28;20038;-75
2022/07/11 08:05:32;;;;;;;74.68;70.97;;;;;;;17.74;52.04;101148.81;5024506;28;20044;-74
2022/07/11 08:07:58;;;;;;;51.35;48.40;;;;;;;18.02;52.39;101146.28;5027680;28;20560;-76
2022/07/11 08:10:23;;;;;;;67.93;64.78;;;;;;;18.05;50.39;101150.69;5029677;28;20065;-75
2022/07/11 08:12:48;;;;;;;66.38;63.28;;;;;;;17.99;50.85;101138.38;5029845;28;20084;-74
2022/07/11 08:15:14;;;;;;;64.03;60.90;;;;;;;18.18;50.18;101144.97;5029924;28;20396;-75
2022/07/11 08:17:41;;;;;;;56.53;53.67;;;;;;;18.33;49.55;101142.78;5029827;28;20060;-76
2022/07/11 08:20:07;;;;;;;48.05;45.30;;;;;;;18.37;48.92;101139.97;5028507;28;20041;-75
2022/07/11 08:22:32;;;;;;;40.50;38.17;;;;;;;18.37;48.46;101129.28;5026718;28;20068;-75
2022/07/11 08:24:58;;;;;;;40.20;38.30;;;;;;;18.44;49.03;101145.13;5027629;28;20029;-75
2022/07/11 08:27:23;;;;;;;33.00;31.40;;;;;;;18.33;48.47;101137.44;5030399;28;20087;-75
2022/07/11 08:29:48;;;;;;;24.85;23.63;;;;;;;18.09;48.82;101141.69;5024202;28;20033;-75
2022/07/11 08:32:14;;;;;;;41.88;39.80;;;;;;;18.23;48.99;101136.81;5023208;28;20116;-75
2022/07/11 08:34:39;;;;;;;34.85;33.13;;;;;;;18.34;48.22;101149.91;5019047;28;20038;-75
2022/07/11 08:37:05;;;;;;;20.13;18.85;;;;;;;18.26;46.64;101142.09;5025649;28;20071;-75
2022/07/11 08:39:30;;;;;;;26.08;24.60;;;;;;;18.20;47.62;101141.38;5029651;28;20514;-75
2022/07/11 08:41:56;;;;;;;33.35;31.67;;;;;;;18.18;47.92;101139.63;5030445;28;20036;-75
2022/07/11 08:44:24;;;;;;;31.52;29.80;;;;;;;18.33;48.13;101132.09;5024956;28;20025;-75
2022/07/11 08:46:50;;;;;;;39.45;37.58;;;;;;;18.50;47.94;101126.28;5029898;28;20036;-74
2022/07/11 08:49:15;;;;;;;32.05;30.05;;;;;;;18.70;47.07;101125.66;5013030;28;20116;-75
2022/07/11 08:51:41;;;;;;;24.63;22.95;;;;;;;18.63;46.16;101124.97;5025944;28;20153;-76
2022/07/11 08:54:06;;;;;;;18.95;17.95;;;;;;;18.65;45.71;101131.13;5024230;28;20068;-76
2022/07/11 08:56:32;;;;;;;20.20;19.15;;;;;;;18.67;45.91;101129.28;5012399;28;20038;-75
2022/07/11 08:58:58;;;;;;;24.65;23.23;;;;;;;18.54;45.79;101126.13;5028028;28;20040;-75
2022/07/11 09:01:34;;;;;;;21.98;20.25;;;;;;;18.71;45.68;101116.72;5024458;28;20037;-76
2022/07/11 09:04:00;;;;;;;24.42;23.05;;;;;;;18.99;45.59;101124.78;5024585;28;20034;-75
2022/07/11 09:06:26;;;;;;;25.33;23.80;;;;;;;19.10;45.41;101128.00;5021222;28;20404;-75
2022/07/11 09:08:51;;;;;;;22.08;20.98;;;;;;;19.09;44.84;101118.22;5026528;28;20068;-75
2022/07/11 09:11:17;;;;;;;21.30;20.13;;;;;;;19.01;45.21;101120.25;5024644;28;20069;-75
2022/07/11 09:13:42;;;;;;;14.63;13.85;;;;;;;19.16;40.84;101125.13;5022355;28;20542;-74
2022/07/11 09:16:09;;;;;;;16.60;15.70;;;;;;;19.15;41.11;101118.03;5023459;28;20081;-75
2022/07/11 09:18:38;;;;;;;21.92;20.88;;;;;;;19.23;41.85;101115.09;5020924;28;20034;-75
2022/07/11 09:26:42;;;;;;;24.90;23.67;;;;;;;19.37;43.29;101115.53;5020975;28;20037;-75
2022/07/11 09:29:12;;;;;;;25.52;24.13;;;;;;;19.48;42.70;101109.81;5022778;28;20041;-75
2022/07/11 09:31:40;;;;;;;21.90;20.80;;;;;;;19.66;41.71;101102.94;5021366;28;20038;-75
2022/07/11 09:34:28;;;;;;;28.48;27.08;;;;;;;19.77;42.61;101105.28;5025636;28;20045;-76
2022/07/11 09:36:55;;;;;;;37.85;35.70;;;;;;;19.78;43.35;101112.38;5021787;28;20064;-75
2022/07/11 09:39:22;;;;;;;24.85;23.65;;;;;;;19.88;41.41;101084.34;5023755;28;20511;-75
2022/07/11 09:41:50;;;;;;;25.15;23.23;;;;;;;19.83;41.19;101102.38;5020536;28;20120;-75
2022/07/11 09:44:26;;;;;;;25.73;24.52;;;;;;;19.81;41.21;101102.44;5021633;28;20036;-75
2022/07/11 09:46:52;;;;;;;25.38;24.13;;;;;;;19.77;41.17;101113.31;5020508;28;20120;-75
2022/07/11 09:49:35;;;;;;;26.05;24.55;;;;;;;19.62;40.59;101107.53;5024707;28;20025;-75
2022/07/11 09:52:07;;;;;;;25.05;23.80;;;;;;;19.61;40.48;101116.47;5028076;28;20134;-75
2022/07/11 09:54:33;;;;;;;28.33;26.83;;;;;;;19.70;40.71;101091.22;5027364;28;20049;-75
2022/07/11 09:56:58;;;;;;;26.98;25.63;;;;;;;19.98;40.23;101093.78;5029211;28;20116;-75
2022/07/11 09:59:23;;;;;;;26.58;25.25;;;;;;;20.15;39.47;101101.22;5029997;28;20021;-75
2022/07/11 10:01:49;;;;;;;26.90;25.58;;;;;;;20.25;40.45;101097.28;5028120;28;20037;-75
2022/07/11 10:04:14;;;;;;;22.90;21.77;;;;;;;20.27;39.94;101099.88;5028849;28;20088;-75
2022/07/11 10:06:39;;;;;;;24.83;23.33;;;;;;;20.36;39.46;101092.38;5029119;28;20052;-76
2022/07/11 10:09:06;;;;;;;23.45;22.27;;;;;;;20.37;38.46;101079.84;5011336;28;20037;-75
2022/07/11 10:11:32;;;;;;;19.70;18.75;;;;;;;20.27;38.03;101095.38;5028171;28;20040;-75
2022/07/11 10:14:03;;;;;;;19.58;18.58;;;;;;;20.20;37.72;101098.34;5024671;28;20128;-75
2022/07/11 10:16:48;;;;;;;18.05;16.92;;;;;;;20.26;37.11;101087.44;5020444;28;20447;-75
2022/07/11 10:19:22;;;;;;;15.75;14.95;;;;;;;20.39;35.72;101096.75;5023493;28;20128;-75
2022/07/11 10:22:09;;;;;;;15.98;15.02;;;;;;;20.43;36.34;101095.69;5022918;28;20534;-75
2022/07/11 10:24:46;;;;;;;19.45;18.52;;;;;;;20.56;37.45;101088.94;5020684;28;20061;-75
2022/07/11 10:27:21;;;;;;;18.52;17.17;;;;;;;20.67;37.97;101088.56;5020188;28;20034;-75
2022/07/11 10:29:52;;;;;;;17.40;16.05;;;;;;;20.84;37.67;101079.84;5021425;28;20064;-75
2022/07/11 10:32:19;;;;;;;20.77;19.77;;;;;;;21.04;37.48;101075.44;5023249;28;20049;-75
2022/07/11 10:34:46;;;;;;;18.88;17.80;;;;;;;20.99;36.97;101081.91;5021660;28;20037;-75
2022/07/11 10:37:14;;;;;;;14.70;14.00;;;;;;;21.04;36.21;101080.81;5019268;28;20489;-75
2022/07/11 10:39:57;;;;;;;14.20;13.40;;;;;;;21.16;36.91;101075.81;5020604;28;20090;-75
2022/07/11 10:42:36;;;;;;;17.80;16.90;;;;;;;21.45;36.29;101080.00;5019056;28;20080;-75
2022/07/11 10:45:07;;;;;;;20.38;18.98;;;;;;;21.49;37.33;101074.50;5020333;28;20033;-75
2022/07/11 10:47:35;;;;;;;16.35;15.55;;;;;;;21.75;35.71;101071.56;5002267;28;20033;-74
2022/07/11 10:50:06;;;;;;;14.50;13.65;;;;;;;21.79;34.56;101080.34;5023373;28;20473;-75
2022/07/11 10:52:34;;;;;;;13.18;12.48;;;;;;;21.87;34.72;101078.19;5018023;28;20045;-74
2022/07/11 10:55:07;;;;;;;14.43;13.52;;;;;;;21.76;34.13;101077.81;5022615;28;20411;-75
2022/07/11 10:57:49;;;;;;;15.68;14.88;;;;;;;21.85;34.83;101080.06;5020583;28;20048;-75
2022/07/11 11:00:19;;;;;;;16.50;15.50;;;;;;;21.82;33.95;101085.59;5019308;28;20113;-75
2022/07/11 11:03:07;;;;;;;15.90;15.10;;;;;;;22.00;34.67;101081.22;5020722;28;20514;-75
2022/07/11 11:05:44;;;;;;;17.30;16.45;;;;;;;22.17;34.21;101075.94;5020606;28;20038;-76
2022/07/11 11:11:00;;;;;;;19.00;18.10;;;;;;;22.35;34.76;101079.66;5022042;28;20105;-76
2022/07/11 11:13:27;;;;;;;17.48;16.48;;;;;;;22.27;34.20;101082.69;5016876;28;20116;-75
2022/07/11 11:15:54;;;;;;;16.95;15.82;;;;;;;22.14;34.50;101076.09;5024122;28;20535;-75
2022/07/11 11:18:22;;;;;;;15.15;14.35;;;;;;;22.01;33.90;101078.47;5027829;28;20581;-76
2022/07/11 11:21:07;;;;;;;14.98;14.18;;;;;;;22.18;34.50;101076.81;5025792;28;20103;-75